Time;durP1;ratioP1;P1;durP2;ratioP2;P2;SDS_P1;SDS_P2;PMS_P1;PMS_P2;Temp;Humidity;BMP_temperature;BMP_pressure;BME280_temperature;BME280_humidity;BME280_pressure;Samples;Min_cycle;Max_cycle;Signal;HPM_P1;HPM_P2
2021/08/06 00:02:00;;;;;;;6.25;3.67;;;;;;;;;;5073560;28;20098;-80
2021/08/06 00:04:28;;;;;;;3.97;2.60;;;;;;;;;;5073330;28;20412;-80
2021/08/06 00:06:54;;;;;;;5.30;3.65;;;;;;;;;;5073267;28;20139;-79
2021/08/06 00:09:21;;;;;;;9.05;4.10;;;;;;;;;;5073289;28;20052;-80
2021/08/06 00:11:47;;;;;;;6.47;3.55;;;;;;;;;;5073091;28;20555;-79
2021/08/06 00:14:14;;;;;;;9.13;4.75;;;;;;;;;;5073151;28;20051;-79
2021/08/06 00:16:40;;;;;;;7.43;4.15;;;;;;;;;;5072996;28;20056;-79
2021/08/06 00:19:07;;;;;;;6.90;3.78;;;;;;;;;;5073215;28;20094;-80
2021/08/06 00:21:35;;;;;;;15.85;5.00;;;;;;;;;;5073124;28;20052;-80
2021/08/06 00:24:01;;;;;;;5.43;4.47;;;;;;;;;;5073073;28;20040;-79
2021/08/06 00:26:28;;;;;;;10.23;5.63;;;;;;;;;;5072837;28;20098;-79
2021/08/06 00:28:54;;;;;;;8.98;2.97;;;;;;;;;;5072890;28;20074;-80
2021/08/06 00:31:21;;;;;;;5.05;3.65;;;;;;;;;;5072955;28;20052;-79
2021/08/06 00:33:47;;;;;;;13.02;3.88;;;;;;;;;;5072869;28;20051;-80
2021/08/06 00:36:14;;;;;;;9.73;3.33;;;;;;;;;;5072409;28;20056;-79
2021/08/06 00:38:42;;;;;;;6.47;4.70;;;;;;;;;;5072571;28;20048;-80
2021/08/06 00:41:08;;;;;;;8.02;4.20;;;;;;;;;;5072708;28;20060;-79
2021/08/06 00:43:35;;;;;;;7.05;4.43;;;;;;;;;;5072750;28;20052;-80
2021/08/06 00:46:02;;;;;;;8.60;4.93;;;;;;;;;;5072516;28;20106;-79
2021/08/06 00:48:28;;;;;;;6.40;4.05;;;;;;;;;;5072549;28;20488;-79
2021/08/06 00:50:56;;;;;;;4.53;3.50;;;;;;;;;;5072514;28;20051;-80
2021/08/06 00:53:23;;;;;;;8.05;4.72;;;;;;;;;;5072472;28;20052;-80
2021/08/06 00:55:51;;;;;;;6.70;4.82;;;;;;;;;;5072191;28;20073;-80
2021/08/06 00:58:17;;;;;;;5.50;4.25;;;;;;;;;;5072134;28;20052;-80
2021/08/06 01:00:47;;;;;;;4.65;3.65;;;;;;;;;;5072244;28;20553;-80
2021/08/06 01:03:17;;;;;;;7.20;4.50;;;;;;;;;;5072445;28;20102;-80
2021/08/06 01:05:45;;;;;;;12.13;4.55;;;;;;;;;;5072081;28;20554;-79
2021/08/06 01:08:14;;;;;;;7.45;4.15;;;;;;;;;;5071955;28;20488;-79
2021/08/06 01:10:42;;;;;;;10.93;4.82;;;;;;;;;;5072017;28;20495;-79
2021/08/06 01:13:10;;;;;;;5.13;3.70;;;;;;;;;;5072007;28;20048;-79
2021/08/06 01:15:37;;;;;;;6.90;4.65;;;;;;;;;;5072088;28;20114;-79
2021/08/06 01:18:05;;;;;;;7.10;4.13;;;;;;;;;;5071795;28;20060;-80
2021/08/06 01:20:32;;;;;;;12.00;4.35;;;;;;;;;;5071710;28;20086;-80
2021/08/06 01:23:01;;;;;;;7.10;3.30;;;;;;;;;;5071789;28;20451;-79
2021/08/06 01:25:39;;;;;;;7.00;3.38;;;;;;;;;;5071862;28;20048;-80
2021/08/06 01:28:06;;;;;;;8.88;4.30;;;;;;;;;;5071621;28;20493;-80
2021/08/06 01:30:32;;;;;;;7.10;3.30;;;;;;;;;;5071646;28;20048;-79
2021/08/06 01:32:59;;;;;;;9.10;4.18;;;;;;;;;;5071528;28;20044;-80
2021/08/06 01:35:25;;;;;;;4.53;3.83;;;;;;;;;;5071671;28;20056;-80
2021/08/06 01:37:52;;;;;;;4.95;2.95;;;;;;;;;;5071666;28;20098;-80
2021/08/06 01:40:18;;;;;;;4.22;3.60;;;;;;;;;;5071649;28;20496;-79
2021/08/06 01:42:50;;;;;;;5.78;3.58;;;;;;;;;;5071397;28;20492;-80
2021/08/06 01:45:19;;;;;;;4.18;2.67;;;;;;;;;;5071466;28;20076;-80
2021/08/06 01:47:46;;;;;;;5.57;2.70;;;;;;;;;;5070421;28;20273;-79
2021/08/06 01:50:14;;;;;;;6.43;3.22;;;;;;;;;;5071234;28;20456;-80
2021/08/06 01:52:42;;;;;;;6.88;3.15;;;;;;;;;;5071214;28;20480;-80
2021/08/06 01:55:10;;;;;;;7.60;3.50;;;;;;;;;;5071333;28;20101;-80
2021/08/06 01:57:37;;;;;;;5.85;3.00;;;;;;;;;;5071238;28;20049;-80
2021/08/06 02:00:06;;;;;;;3.13;2.45;;;;;;;;;;5071252;28;20054;-80
2021/08/06 02:02:33;;;;;;;3.50;2.80;;;;;;;;;;5071305;28;20044;-80
2021/08/06 02:04:59;;;;;;;8.18;2.60;;;;;;;;;;5071332;28;20063;-80
2021/08/06 02:07:26;;;;;;;4.53;2.67;;;;;;;;;;5071045;28;20401;-80
2021/08/06 02:09:53;;;;;;;8.18;3.28;;;;;;;;;;5071008;28;20052;-80
2021/08/06 02:12:20;;;;;;;2.90;2.25;;;;;;;;;;5070929;28;20049;-81
2021/08/06 02:14:48;;;;;;;5.10;3.22;;;;;;;;;;5070832;28;20049;-81
2021/08/06 02:17:16;;;;;;;4.78;4.13;;;;;;;;;;5071044;28;20048;-80
2021/08/06 02:19:44;;;;;;;3.70;2.58;;;;;;;;;;5071378;28;20060;-81
2021/08/06 02:22:11;;;;;;;5.47;3.15;;;;;;;;;;5070863;28;20094;-80
2021/08/06 02:24:41;;;;;;;3.53;2.95;;;;;;;;;;5070817;28;20488;-80
2021/08/06 02:27:08;;;;;;;8.70;4.55;;;;;;;;;;5070894;28;20083;-80
2021/08/06 02:29:35;;;;;;;4.70;3.28;;;;;;;;;;5070612;28;20141;-81
2021/08/06 02:32:02;;;;;;;4.60;3.35;;;;;;;;;;5070962;28;20044;-81
2021/08/06 02:34:30;;;;;;;6.10;2.95;;;;;;;;;;5071111;28;20067;-80
2021/08/06 02:36:58;;;;;;;6.68;2.80;;;;;;;;;;5070827;28;20075;-80
2021/08/06 02:39:26;;;;;;;8.93;3.92;;;;;;;;;;5070516;28;20097;-80
2021/08/06 02:41:55;;;;;;;6.63;4.03;;;;;;;;;;5070644;28;20093;-80
2021/08/06 02:44:22;;;;;;;3.83;3.03;;;;;;;;;;5070612;28;20106;-80
2021/08/06 02:46:49;;;;;;;6.80;3.40;;;;;;;;;;5070777;28;20052;-80
2021/08/06 02:49:15;;;;;;;4.50;3.08;;;;;;;;;;5070698;28;20049;-81
2021/08/06 02:51:43;;;;;;;8.18;3.45;;;;;;;;;;5070634;28;20070;-80
2021/08/06 02:54:10;;;;;;;3.53;2.05;;;;;;;;;;5070560;28;20105;-80
2021/08/06 02:56:36;;;;;;;3.58;2.67;;;;;;;;;;5070388;28;20057;-80
2021/08/06 02:59:03;;;;;;;6.32;3.42;;;;;;;;;;5068563;28;20052;-77
2021/08/06 03:01:29;;;;;;;6.97;2.78;;;;;;;;;;5074674;28;20048;-81
2021/08/06 03:03:56;;;;;;;1.40;0.88;;;;;;;;;;5074545;28;20055;-80
2021/08/06 03:06:22;;;;;;;1.85;0.73;;;;;;;;;;5074367;28;20485;-86
2021/08/06 03:08:50;;;;;;;4.32;2.72;;;;;;;;;;5074418;28;20056;-79
2021/08/06 03:11:17;;;;;;;7.40;2.38;;;;;;;;;;5074498;28;20048;-78
2021/08/06 03:13:43;;;;;;;2.92;2.15;;;;;;;;;;5074526;28;20052;-78
2021/08/06 03:16:10;;;;;;;5.97;2.80;;;;;;;;;;5074153;28;20102;-80
2021/08/06 03:18:37;;;;;;;4.68;2.08;;;;;;;;;;5074180;28;20059;-80
2021/08/06 03:21:04;;;;;;;5.47;2.00;;;;;;;;;;5074129;28;20056;-81
2021/08/06 03:23:30;;;;;;;11.18;2.20;;;;;;;;;;5074025;28;20495;-80
2021/08/06 03:25:58;;;;;;;4.00;2.75;;;;;;;;;;5074232;28;20106;-80
2021/08/06 03:28:25;;;;;;;2.35;1.80;;;;;;;;;;5073924;28;20056;-79
2021/08/06 03:30:53;;;;;;;4.07;1.55;;;;;;;;;;5074025;28;20048;-79
2021/08/06 03:33:19;;;;;;;3.72;2.05;;;;;;;;;;5073855;28;20041;-79
2021/08/06 03:35:46;;;;;;;3.03;1.90;;;;;;;;;;5073757;28;20056;-80
2021/08/06 03:38:13;;;;;;;2.78;1.65;;;;;;;;;;5073668;28;20052;-79
2021/08/06 03:40:40;;;;;;;1.92;1.48;;;;;;;;;;5073893;28;20500;-79
2021/08/06 03:43:08;;;;;;;1.58;1.00;;;;;;;;;;5073820;28;20070;-79
2021/08/06 03:45:34;;;;;;;4.80;1.30;;;;;;;;;;5073812;28;20045;-79
2021/08/06 03:48:01;;;;;;;2.10;1.40;;;;;;;;;;5073675;28;20044;-79
2021/08/06 03:50:27;;;;;;;1.65;0.85;;;;;;;;;;5073532;28;20052;-79
2021/08/06 03:52:54;;;;;;;6.78;1.55;;;;;;;;;;5073412;28;20412;-79
2021/08/06 03:55:20;;;;;;;1.52;1.42;;;;;;;;;;5073783;28;20048;-79
2021/08/06 03:57:50;;;;;;;2.10;1.38;;;;;;;;;;5073299;28;20044;-79
2021/08/06 04:00:19;;;;;;;9.15;1.67;;;;;;;;;;5073668;28;20048;-79
2021/08/06 04:02:45;;;;;;;1.35;0.98;;;;;;;;;;5073532;28;20040;-79
2021/08/06 04:05:12;;;;;;;1.77;1.15;;;;;;;;;;5073181;28;20105;-79
2021/08/06 04:07:41;;;;;;;3.38;1.67;;;;;;;;;;5073492;28;20044;-80
2021/08/06 04:10:08;;;;;;;1.63;1.30;;;;;;;;;;5072936;28;20053;-80
2021/08/06 04:12:35;;;;;;;4.90;1.63;;;;;;;;;;5072921;28;20048;-79
2021/08/06 04:15:01;;;;;;;2.47;1.73;;;;;;;;;;5070584;28;20420;-80
2021/08/06 04:17:30;;;;;;;4.13;1.83;;;;;;;;;;5073230;28;20503;-79
2021/08/06 04:19:56;;;;;;;1.88;1.35;;;;;;;;;;5072920;28;20056;-79
2021/08/06 04:22:23;;;;;;;6.97;1.65;;;;;;;;;;5072989;28;20044;-80
2021/08/06 04:24:49;;;;;;;5.15;1.55;;;;;;;;;;5073172;28;20060;-79
2021/08/06 04:27:16;;;;;;;4.68;2.00;;;;;;;;;;5072947;28;20542;-79
2021/08/06 04:29:42;;;;;;;2.65;1.48;;;;;;;;;;5072954;28;20526;-79
2021/08/06 04:32:09;;;;;;;3.03;1.70;;;;;;;;;;5072834;28;20098;-79
2021/08/06 04:34:36;;;;;;;2.55;1.23;;;;;;;;;;5072693;28;20052;-80
2021/08/06 04:37:03;;;;;;;3.72;1.80;;;;;;;;;;5072853;28;20048;-79
2021/08/06 04:39:30;;;;;;;2.67;2.08;;;;;;;;;;5072604;28;20488;-80
2021/08/06 04:41:56;;;;;;;2.78;1.77;;;;;;;;;;5072839;28;20122;-79
2021/08/06 04:44:23;;;;;;;2.47;1.73;;;;;;;;;;5072633;28;20051;-79
2021/08/06 04:46:49;;;;;;;2.15;1.48;;;;;;;;;;5072535;28;20049;-79
2021/08/06 04:49:16;;;;;;;4.03;2.05;;;;;;;;;;5072357;28;20056;-79
2021/08/06 04:51:44;;;;;;;2.72;1.27;;;;;;;;;;5072644;28;20397;-79
2021/08/06 04:54:10;;;;;;;3.88;1.15;;;;;;;;;;5072362;28;20784;-80
2021/08/06 04:56:39;;;;;;;3.05;1.23;;;;;;;;;;5072382;28;20056;-79
2021/08/06 04:59:05;;;;;;;1.75;1.15;;;;;;;;;;5072258;28;20055;-79
2021/08/06 05:01:32;;;;;;;2.03;1.20;;;;;;;;;;5072096;28;20044;-79
2021/08/06 05:03:58;;;;;;;4.07;1.98;;;;;;;;;;5072448;28;20518;-79
2021/08/06 05:06:25;;;;;;;5.65;1.27;;;;;;;;;;5072109;28;20094;-79
2021/08/06 05:08:53;;;;;;;3.15;1.30;;;;;;;;;;5072092;28;20052;-79
2021/08/06 05:11:19;;;;;;;2.55;1.25;;;;;;;;;;5072102;28;20443;-79
2021/08/06 05:13:46;;;;;;;3.22;1.75;;;;;;;;;;5071994;28;20044;-78
2021/08/06 05:16:12;;;;;;;1.80;1.20;;;;;;;;;;5071855;28;20044;-79
2021/08/06 05:18:39;;;;;;;1.98;1.10;;;;;;;;;;5072003;28;20056;-79
2021/08/06 05:21:05;;;;;;;2.60;1.63;;;;;;;;;;5072115;28;20114;-79
2021/08/06 05:23:32;;;;;;;4.10;1.75;;;;;;;;;;5071962;28;20527;-78
2021/08/06 05:26:00;;;;;;;3.70;1.90;;;;;;;;;;5071822;28;20488;-79
2021/08/06 05:28:27;;;;;;;2.72;1.40;;;;;;;;;;5071656;28;20485;-79
2021/08/06 05:30:53;;;;;;;3.38;1.52;;;;;;;;;;5071682;28;20063;-78
2021/08/06 05:33:20;;;;;;;2.20;1.20;;;;;;;;;;5071821;28;20048;-78
2021/08/06 05:35:47;;;;;;;1.67;1.10;;;;;;;;;;5071682;28;20071;-78
2021/08/06 05:38:13;;;;;;;2.40;1.23;;;;;;;;;;5071540;28;20059;-78
2021/08/06 05:40:41;;;;;;;4.03;1.63;;;;;;;;;;5071463;28;20052;-77
2021/08/06 05:43:09;;;;;;;2.05;1.67;;;;;;;;;;5071369;28;20056;-78
2021/08/06 05:45:35;;;;;;;1.25;0.90;;;;;;;;;;5071697;28;20048;-78
2021/08/06 05:48:02;;;;;;;1.52;0.70;;;;;;;;;;5071581;28;20052;-78
2021/08/06 05:50:29;;;;;;;3.28;1.63;;;;;;;;;;5071273;28;20430;-78
2021/08/06 05:52:56;;;;;;;6.25;1.55;;;;;;;;;;5071228;28;20048;-78
2021/08/06 05:55:22;;;;;;;1.33;1.10;;;;;;;;;;5071290;28;20052;-79
2021/08/06 05:57:49;;;;;;;5.93;1.95;;;;;;;;;;5071029;28;20049;-78
2021/08/06 06:00:17;;;;;;;4.07;2.22;;;;;;;;;;5071268;28;20056;-77
2021/08/06 06:02:44;;;;;;;1.27;0.77;;;;;;;;;;5071068;28;20494;-78
2021/08/06 06:05:10;;;;;;;3.60;1.48;;;;;;;;;;5071384;28;20085;-78
2021/08/06 06:07:42;;;;;;;1.73;0.90;;;;;;;;;;5071152;28;20113;-78
2021/08/06 06:10:09;;;;;;;2.28;1.33;;;;;;;;;;5070991;28;20833;-78
2021/08/06 06:12:36;;;;;;;2.20;1.45;;;;;;;;;;5071239;28;20045;-77
2021/08/06 06:15:02;;;;;;;2.22;0.95;;;;;;;;;;5070883;28;20052;-77
2021/08/06 06:17:30;;;;;;;2.22;1.10;;;;;;;;;;5071080;28;20048;-78
2021/08/06 06:19:57;;;;;;;1.20;1.00;;;;;;;;;;5070955;28;20063;-77
2021/08/06 06:22:23;;;;;;;1.42;0.70;;;;;;;;;;5070947;28;20052;-77
2021/08/06 06:24:50;;;;;;;1.27;0.80;;;;;;;;;;5070728;28;20053;-77
2021/08/06 06:27:16;;;;;;;4.00;0.98;;;;;;;;;;5068433;28;20048;-77
2021/08/06 06:29:43;;;;;;;3.60;1.48;;;;;;;;;;5070892;28;20071;-77
2021/08/06 06:32:09;;;;;;;1.15;0.65;;;;;;;;;;5070958;28;20094;-79
2021/08/06 06:34:37;;;;;;;1.30;0.85;;;;;;;;;;5070253;28;20049;-78
2021/08/06 06:37:04;;;;;;;1.48;0.90;;;;;;;;;;5070978;28;20048;-78
2021/08/06 06:39:31;;;;;;;0.80;0.60;;;;;;;;;;5070465;28;20052;-78
2021/08/06 06:41:57;;;;;;;2.15;1.17;;;;;;;;;;5070777;28;20044;-78
2021/08/06 06:44:24;;;;;;;2.22;1.40;;;;;;;;;;5070843;28;20060;-78
2021/08/06 06:46:50;;;;;;;1.48;0.80;;;;;;;;;;5070576;28;20102;-79
2021/08/06 06:49:17;;;;;;;2.20;1.40;;;;;;;;;;5071008;28;20067;-79
2021/08/06 06:51:45;;;;;;;2.63;1.30;;;;;;;;;;5070662;28;20412;-79
2021/08/06 06:54:11;;;;;;;1.98;1.48;;;;;;;;;;5069713;28;20450;-78
2021/08/06 06:56:38;;;;;;;1.58;1.33;;;;;;;;;;5070670;28;20052;-79
2021/08/06 06:59:04;;;;;;;1.58;1.48;;;;;;;;;;5070486;28;20411;-79
2021/08/06 07:01:31;;;;;;;1.35;0.70;;;;;;;;;;5070436;28;20057;-78
2021/08/06 07:03:57;;;;;;;1.15;0.73;;;;;;;;;;5070601;28;20045;-80
2021/08/06 07:06:25;;;;;;;1.27;0.77;;;;;;;;;;5070360;28;20041;-79
2021/08/06 07:08:53;;;;;;;3.17;2.22;;;;;;;;;;5070221;28;20055;-80
2021/08/06 07:11:20;;;;;;;2.40;1.27;;;;;;;;;;5070500;28;20127;-80
2021/08/06 07:13:46;;;;;;;2.65;1.35;;;;;;;;;;5070460;28;20063;-78
2021/08/06 07:16:13;;;;;;;2.25;1.40;;;;;;;;;;5070401;28;20045;-79
2021/08/06 07:18:39;;;;;;;3.38;1.33;;;;;;;;;;5070303;28;20049;-79
2021/08/06 07:21:10;;;;;;;1.67;1.20;;;;;;;;;;5070664;28;20044;-80
2021/08/06 07:23:37;;;;;;;3.85;1.58;;;;;;;;;;5070210;28;20076;-80
2021/08/06 07:26:05;;;;;;;4.35;1.73;;;;;;;;;;5070216;28;20040;-78
2021/08/06 07:28:31;;;;;;;2.95;2.53;;;;;;;;;;5070393;28;20040;-79
2021/08/06 07:30:58;;;;;;;2.33;1.35;;;;;;;;;;5070177;28;20630;-80
2021/08/06 07:33:24;;;;;;;2.97;1.55;;;;;;;;;;5070234;28;20048;-80
2021/08/06 07:35:51;;;;;;;1.65;1.40;;;;;;;;;;5070059;28;20501;-80
2021/08/06 07:38:17;;;;;;;2.67;1.13;;;;;;;;;;5070102;28;20523;-81
2021/08/06 07:40:44;;;;;;;2.25;1.25;;;;;;;;;;5070150;28;20049;-80
2021/08/06 07:43:12;;;;;;;2.60;1.45;;;;;;;;;;5070042;28;20048;-80
2021/08/06 07:45:38;;;;;;;3.17;1.30;;;;;;;;;;5070441;28;20056;-80
2021/08/06 07:48:05;;;;;;;3.05;1.20;;;;;;;;;;5073587;28;20044;-81
2021/08/06 07:50:32;;;;;;;2.95;1.33;;;;;;;;;;5073555;28;20045;-80
2021/08/06 07:52:58;;;;;;;2.85;1.50;;;;;;;;;;5073480;28;20489;-81
2021/08/06 07:55:25;;;;;;;3.22;1.88;;;;;;;;;;5073841;28;20420;-80
2021/08/06 07:57:51;;;;;;;3.80;1.50;;;;;;;;;;5073427;28;20051;-81
2021/08/06 08:00:20;;;;;;;2.00;1.20;;;;;;;;;;5073368;28;20056;-81
2021/08/06 08:02:46;;;;;;;2.03;1.23;;;;;;;;;;5073412;28;20072;-81
2021/08/06 08:05:14;;;;;;;2.83;1.77;;;;;;;;;;5073341;28;20497;-81
2021/08/06 08:07:41;;;;;;;5.07;1.60;;;;;;;;;;5073270;28;20488;-81
2021/08/06 08:10:08;;;;;;;1.98;1.42;;;;;;;;;;5073290;28;20055;-81
2021/08/06 08:12:34;;;;;;;4.65;2.67;;;;;;;;;;5073206;28;20044;-81
2021/08/06 08:15:01;;;;;;;3.78;1.80;;;;;;;;;;5073213;28;20044;-82
2021/08/06 08:17:29;;;;;;;3.63;1.88;;;;;;;;;;5073122;28;20051;-81
2021/08/06 08:19:55;;;;;;;3.95;2.20;;;;;;;;;;5073089;28;20053;-79
2021/08/06 08:22:22;;;;;;;3.30;2.13;;;;;;;;;;5073021;28;20527;-81
2021/08/06 08:24:49;;;;;;;3.42;2.10;;;;;;;;;;5073160;28;20063;-80
2021/08/06 08:27:17;;;;;;;3.58;2.65;;;;;;;;;;5073081;28;20102;-82
2021/08/06 08:29:46;;;;;;;2.65;1.77;;;;;;;;;;5072441;28;20052;-81
2021/08/06 08:32:13;;;;;;;3.10;2.22;;;;;;;;;;5072871;28;20048;-80
2021/08/06 08:34:41;;;;;;;5.88;3.00;;;;;;;;;;5073051;28;20049;-79
2021/08/06 08:37:08;;;;;;;3.42;2.08;;;;;;;;;;5072856;28;20052;-79
2021/08/06 08:39:35;;;;;;;4.65;2.90;;;;;;;;;;5072681;28;20094;-81
2021/08/06 08:42:02;;;;;;;2.95;2.33;;;;;;;;;;5073124;28;20053;-80
2021/08/06 08:44:31;;;;;;;3.50;2.45;;;;;;;;;;5072494;28;20068;-81
2021/08/06 08:46:58;;;;;;;4.07;2.13;;;;;;;;;;5072567;28;20095;-80
2021/08/06 08:49:29;;;;;;;3.55;2.35;;;;;;;;;;5072504;28;20051;-81
2021/08/06 08:51:58;;;;;;;2.70;2.08;;;;;;;;;;5068848;28;20373;-79
2021/08/06 08:54:25;;;;;;;3.03;1.70;;;;;;;;;;5072219;28;20048;-80
2021/08/06 08:56:52;;;;;;;3.17;2.33;;;;;;;;;;5071954;28;20052;-81
2021/08/06 08:59:19;;;;;;;4.03;2.55;;;;;;;;;;5072698;28;20072;-77
2021/08/06 09:01:46;;;;;;;4.90;2.30;;;;;;;;;;5072337;28;20052;-80
2021/08/06 09:04:22;;;;;;;3.33;2.33;;;;;;;;;;5072256;28;20080;-77
2021/08/06 09:06:49;;;;;;;3.65;2.78;;;;;;;;;;5072127;28;20044;-78
2021/08/06 09:09:20;;;;;;;4.07;2.00;;;;;;;;;;5072148;28;20052;-84
2021/08/06 09:11:46;;;;;;;2.75;1.65;;;;;;;;;;5072275;28;20080;-79
2021/08/06 09:14:17;;;;;;;2.63;1.88;;;;;;;;;;5072245;28;20049;-81
2021/08/06 09:16:54;;;;;;;3.20;1.88;;;;;;;;;;5072117;28;20055;-81
2021/08/06 09:19:21;;;;;;;4.47;2.58;;;;;;;;;;5071940;28;20052;-78
2021/08/06 09:21:47;;;;;;;3.20;1.73;;;;;;;;;;5069733;28;20524;-80
2021/08/06 09:24:14;;;;;;;2.70;1.65;;;;;;;;;;5071976;28;20084;-81
2021/08/06 09:26:43;;;;;;;3.05;1.85;;;;;;;;;;5071434;28;20045;-79
2021/08/06 09:29:11;;;;;;;2.15;1.65;;;;;;;;;;5071708;28;20056;-82
2021/08/06 09:31:39;;;;;;;1.95;1.60;;;;;;;;;;5071702;28;20522;-79
2021/08/06 09:34:18;;;;;;;3.90;1.65;;;;;;;;;;5071577;28;20052;-80
2021/08/06 09:37:07;;;;;;;2.67;1.70;;;;;;;;;;5069206;28;20051;-79
2021/08/06 09:39:35;;;;;;;3.40;2.10;;;;;;;;;;5065580;28;20059;-79
2021/08/06 09:42:04;;;;;;;3.17;1.48;;;;;;;;;;5071437;28;20055;-82
2021/08/06 09:44:31;;;;;;;2.38;1.65;;;;;;;;;;5071360;28;20137;-81
2021/08/06 09:46:58;;;;;;;3.58;1.58;;;;;;;;;;5071156;28;20056;-80
2021/08/06 09:49:26;;;;;;;4.68;1.80;;;;;;;;;;5071336;28;20044;-80
2021/08/06 09:51:53;;;;;;;4.38;1.33;;;;;;;;;;5071250;28;20049;-81
2021/08/06 09:54:23;;;;;;;2.00;1.40;;;;;;;;;;5071499;28;20080;-80
2021/08/06 09:57:00;;;;;;;2.78;1.40;;;;;;;;;;5071257;28;20053;-81
2021/08/06 09:59:29;;;;;;;1.95;1.42;;;;;;;;;;5071094;28;20048;-80
2021/08/06 10:02:15;;;;;;;3.13;1.08;;;;;;;;;;5070466;28;20099;-80
2021/08/06 10:04:43;;;;;;;1.88;1.10;;;;;;;;;;5067250;28;20519;-82
2021/08/06 10:07:09;;;;;;;2.15;1.33;;;;;;;;;;5063694;28;20072;-80
2021/08/06 10:09:36;;;;;;;3.45;1.80;;;;;;;;;;5061915;28;20514;-83
2021/08/06 10:12:03;;;;;;;1.83;1.13;;;;;;;;;;5067456;28;20892;-77
2021/08/06 10:14:32;;;;;;;1.83;1.00;;;;;;;;;;5062927;28;20504;-82
2021/08/06 10:16:58;;;;;;;3.15;1.40;;;;;;;;;;5064005;28;20534;-79
2021/08/06 10:19:25;;;;;;;1.40;0.95;;;;;;;;;;5050900;28;20049;-79
2021/08/06 10:21:52;;;;;;;1.27;0.88;;;;;;;;;;5058111;28;20048;-81
2021/08/06 10:24:19;;;;;;;1.73;1.10;;;;;;;;;;5070953;28;20049;-81
2021/08/06 10:26:45;;;;;;;3.30;1.63;;;;;;;;;;5070787;28;20133;-79
2021/08/06 10:29:12;;;;;;;2.58;1.42;;;;;;;;;;5070982;28;20044;-79
2021/08/06 10:31:42;;;;;;;2.78;1.60;;;;;;;;;;5070586;28;20044;-81
2021/08/06 10:34:10;;;;;;;2.05;1.33;;;;;;;;;;5070627;28;20079;-82
2021/08/06 10:36:40;;;;;;;1.95;1.13;;;;;;;;;;5070609;28;20056;-82
2021/08/06 10:39:29;;;;;;;2.08;1.45;;;;;;;;;;5070825;28;20076;-80
2021/08/06 10:41:56;;;;;;;2.15;1.25;;;;;;;;;;5069474;28;20052;-80
2021/08/06 10:44:22;;;;;;;1.40;0.80;;;;;;;;;;5070434;28;20072;-79
2021/08/06 10:46:58;;;;;;;2.08;1.02;;;;;;;;;;5070263;28;20484;-81
2021/08/06 10:49:26;;;;;;;2.63;1.27;;;;;;;;;;5070173;28;20123;-80
2021/08/06 10:52:11;;;;;;;2.20;1.20;;;;;;;;;;5063919;28;20052;-79
2021/08/06 10:54:38;;;;;;;3.08;1.45;;;;;;;;;;5037710;28;20085;-80
2021/08/06 10:57:29;;;;;;;1.73;1.33;;;;;;;;;;5030337;28;20051;-82
2021/08/06 10:59:56;;;;;;;4.05;1.38;;;;;;;;;;5030078;28;20052;-80
2021/08/06 11:02:44;;;;;;;1.58;1.20;;;;;;;;;;5030177;28;20045;-80
2021/08/06 11:05:29;;;;;;;1.20;0.75;;;;;;;;;;5030361;28;20115;-80
2021/08/06 11:07:56;;;;;;;;;;;;;;;;;;5030657;28;20045;-80
2021/08/06 11:10:45;;;;;;;1.92;1.00;;;;;;;;;;5030034;28;19968;-81
2021/08/06 11:13:26;;;;;;;1.15;0.68;;;;;;;;;;5030334;28;20104;-80
2021/08/06 11:16:06;;;;;;;1.15;0.82;;;;;;;;;;5029381;28;20077;-81
2021/08/06 11:18:34;;;;;;;1.52;0.80;;;;;;;;;;5029915;28;20380;-80
2021/08/06 11:21:01;;;;;;;1.25;0.82;;;;;;;;;;5032412;28;20417;-79
2021/08/06 11:23:28;;;;;;;1.50;0.95;;;;;;;;;;5033880;28;20041;-79
2021/08/06 11:25:55;;;;;;;2.17;1.35;;;;;;;;;;5033842;28;20053;-80
2021/08/06 11:28:24;;;;;;;1.17;0.38;;;;;;;;;;5033995;28;20055;-78
2021/08/06 11:30:51;;;;;;;1.10;0.57;;;;;;;;;;5033892;28;20490;-81
2021/08/06 11:33:18;;;;;;;1.25;0.68;;;;;;;;;;5033594;28;20098;-79
2021/08/06 11:35:46;;;;;;;1.00;0.70;;;;;;;;;;5033657;28;20049;-81
2021/08/06 11:38:14;;;;;;;1.05;0.70;;;;;;;;;;5033873;28;20073;-80
2021/08/06 11:40:41;;;;;;;0.80;0.50;;;;;;;;;;5033763;28;20092;-79
2021/08/06 11:43:12;;;;;;;0.98;0.50;;;;;;;;;;5033703;28;20057;-78
2021/08/06 11:45:39;;;;;;;1.05;0.50;;;;;;;;;;5033470;28;20133;-80
2021/08/06 11:48:05;;;;;;;1.35;0.60;;;;;;;;;;5051510;28;20079;-78
2021/08/06 11:50:37;;;;;;;1.60;1.02;;;;;;;;;;5053364;28;20183;-79
2021/08/06 11:53:10;;;;;;;1.58;0.88;;;;;;;;;;5053418;28;20049;-79
2021/08/06 11:55:37;;;;;;;1.13;0.88;;;;;;;;;;5053316;28;20076;-80
2021/08/06 11:58:03;;;;;;;1.65;1.00;;;;;;;;;;5053111;28;20084;-79
2021/08/06 12:00:31;;;;;;;3.22;1.13;;;;;;;;;;5053183;28;20091;-80
2021/08/06 12:03:01;;;;;;;1.27;0.88;;;;;;;;;;5053124;28;20052;-79
2021/08/06 12:05:28;;;;;;;1.17;0.60;;;;;;;;;;5053233;28;20130;-83
2021/08/06 12:07:55;;;;;;;1.65;0.70;;;;;;;;;;5053075;28;20084;-78
2021/08/06 12:10:26;;;;;;;1.48;0.70;;;;;;;;;;5052962;28;20085;-77
2021/08/06 12:12:52;;;;;;;2.05;0.93;;;;;;;;;;5052786;28;20057;-78
2021/08/06 12:15:23;;;;;;;1.13;0.60;;;;;;;;;;5052887;28;20056;-79
2021/08/06 12:18:08;;;;;;;0.80;0.50;;;;;;;;;;5052928;28;20087;-77
2021/08/06 12:20:36;;;;;;;0.90;0.68;;;;;;;;;;5052817;28;20052;-79
2021/08/06 12:23:03;;;;;;;1.88;1.02;;;;;;;;;;5052707;28;20041;-77
2021/08/06 12:25:32;;;;;;;1.15;0.50;;;;;;;;;;5052712;28;20076;-79
2021/08/06 12:27:59;;;;;;;1.15;0.50;;;;;;;;;;5052870;28;20051;-78
2021/08/06 12:30:26;;;;;;;1.42;0.75;;;;;;;;;;5052790;28;20044;-76
2021/08/06 12:32:53;;;;;;;0.75;0.38;;;;;;;;;;5051788;28;20059;-79
2021/08/06 12:35:20;;;;;;;0.60;0.47;;;;;;;;;;5052479;28;20045;-79
2021/08/06 12:37:46;;;;;;;0.95;0.63;;;;;;;;;;5052373;28;20092;-78
2021/08/06 12:40:13;;;;;;;0.77;0.50;;;;;;;;;;5052536;28;20136;-78
2021/08/06 12:42:41;;;;;;;1.05;0.50;;;;;;;;;;5050216;28;20057;-78
2021/08/06 12:45:09;;;;;;;0.73;0.43;;;;;;;;;;5052847;28;20080;-77
2021/08/06 12:47:43;;;;;;;0.68;0.43;;;;;;;;;;5052486;28;20103;-77
2021/08/06 12:50:10;;;;;;;0.73;0.35;;;;;;;;;;5052461;28;20049;-79
2021/08/06 12:52:38;;;;;;;0.73;0.40;;;;;;;;;;5052622;28;20096;-78
2021/08/06 12:55:07;;;;;;;0.80;0.40;;;;;;;;;;5052527;28;20485;-81
2021/08/06 12:57:37;;;;;;;0.85;0.30;;;;;;;;;;5052596;28;20441;-79
2021/08/06 13:00:13;;;;;;;0.40;0.20;;;;;;;;;;5052476;28;20523;-81
2021/08/06 13:02:40;;;;;;;0.40;0.20;;;;;;;;;;5052240;28;20057;-81
2021/08/06 13:05:08;;;;;;;0.40;0.20;;;;;;;;;;5052291;28;20080;-82
2021/08/06 13:07:35;;;;;;;0.30;0.20;;;;;;;;;;5052494;28;20049;-83
2021/08/06 13:10:02;;;;;;;0.50;0.20;;;;;;;;;;5052444;28;20041;-79
2021/08/06 13:12:29;;;;;;;1.05;0.15;;;;;;;;;;5052466;28;20049;-79
2021/08/06 13:14:57;;;;;;;6.70;0.50;;;;;;;;;;5052091;28;20084;-79
2021/08/06 13:17:25;;;;;;;0.57;0.28;;;;;;;;;;5052207;28;20139;-81
2021/08/06 13:19:52;;;;;;;1.60;0.38;;;;;;;;;;5051969;28;20056;-76
2021/08/06 13:27:06;;;;;;;1.45;0.95;;;;;;;26.33;37.88;92320.09;5078323;27;20842;-75
2021/08/06 13:38:46;;;;;;;1.37;0.63;;;;;;;25.50;38.38;92323.47;5084054;27;1365293;-79
2021/08/06 13:41:13;;;;;;;1.00;0.50;;;;;;;25.58;38.70;92332.41;5107091;28;20052;-80
2021/08/06 13:43:43;;;;;;;1.25;0.68;;;;;;;25.85;39.01;92325.78;5061463;28;20419;-81
2021/08/06 13:46:10;;;;;;;1.80;0.50;;;;;;;25.82;37.90;92329.06;5064830;28;20056;-80
2021/08/06 13:48:37;;;;;;;1.58;0.40;;;;;;;25.19;39.05;92325.47;5062428;28;20048;-81
2021/08/06 13:51:04;;;;;;;1.85;0.40;;;;;;;25.51;38.39;92329.53;5064326;28;20464;-80
2021/08/06 13:53:31;;;;;;;1.52;0.63;;;;;;;25.73;38.30;92342.31;5065053;28;20084;-80
2021/08/06 13:55:59;;;;;;;1.38;0.50;;;;;;;26.12;38.01;92322.81;5054394;28;20048;-80
2021/08/06 13:58:26;;;;;;;1.60;0.50;;;;;;;26.11;37.99;92326.56;5061318;28;20048;-80
2021/08/06 14:00:53;;;;;;;2.28;0.40;;;;;;;26.23;38.23;92331.03;5064895;28;20045;-80
2021/08/06 14:03:20;;;;;;;1.02;0.32;;;;;;;26.49;37.36;92336.00;5065825;28;20049;-79
2021/08/06 14:05:47;;;;;;;3.67;0.50;;;;;;;26.76;35.61;92322.44;5066095;28;20049;-81
2021/08/06 14:08:14;;;;;;;1.05;0.50;;;;;;;27.19;33.64;92328.16;5065871;28;20135;-81
2021/08/06 14:10:40;;;;;;;2.28;0.55;;;;;;;27.24;34.44;92335.03;5065737;28;20049;-80
2021/08/06 14:13:09;;;;;;;1.55;0.50;;;;;;;27.29;33.27;92335.59;5065970;28;20070;-80
2021/08/06 14:15:36;;;;;;;1.50;0.40;;;;;;;27.38;32.67;92345.97;5065825;28;20051;-79
2021/08/06 14:18:03;;;;;;;1.73;0.50;;;;;;;27.46;34.01;92342.41;5065660;28;20060;-80
2021/08/06 14:20:30;;;;;;;1.30;0.40;;;;;;;27.07;34.54;92342.13;5066016;28;20059;-80
2021/08/06 14:22:57;;;;;;;1.00;0.50;;;;;;;26.77;35.71;92350.31;5065590;28;20055;-80
2021/08/06 14:25:24;;;;;;;3.78;0.50;;;;;;;26.55;34.67;92331.25;5065865;28;20080;-79
2021/08/06 14:27:51;;;;;;;1.33;0.43;;;;;;;26.50;35.36;92345.44;5065427;28;20527;-80
2021/08/06 14:30:19;;;;;;;1.40;0.70;;;;;;;26.50;35.34;92347.28;5065441;28;20049;-80
2021/08/06 14:32:46;;;;;;;1.58;0.70;;;;;;;26.44;34.75;92349.38;5046445;28;20051;-81
2021/08/06 14:35:13;;;;;;;1.17;0.50;;;;;;;26.30;35.01;92346.31;5045443;28;20773;-80
2021/08/06 14:37:40;;;;;;;3.10;0.50;;;;;;;26.76;34.31;92357.44;5045834;28;20122;-81
2021/08/06 14:40:08;;;;;;;3.95;0.50;;;;;;;26.62;34.27;92365.69;5045572;28;20517;-81
2021/08/06 14:42:35;;;;;;;1.77;0.57;;;;;;;26.34;34.02;92370.91;5045575;28;20081;-79